createdAt,value
2017-12-31T00:01:40.544Z,8.77
2017-12-31T00:04:08.886Z,8.43
2017-12-31T00:06:36.481Z,8.63
2017-12-31T00:09:04.802Z,7.60
2017-12-31T00:11:32.450Z,8.50
2017-12-31T00:14:00.011Z,8.37
2017-12-31T00:16:27.592Z,8.47
2017-12-31T00:18:55.292Z,8.10
2017-12-31T00:21:22.911Z,6.80
2017-12-31T00:23:50.531Z,7.87
2017-12-31T00:26:18.872Z,7.43
2017-12-31T00:28:46.486Z,8.30
2017-12-31T00:31:16.548Z,8.77
2017-12-31T00:33:44.132Z,7.60
2017-12-31T00:36:11.699Z,7.57
2017-12-31T00:38:39.326Z,7.23
2017-12-31T00:41:06.924Z,6.63
2017-12-31T00:43:34.654Z,6.80
2017-12-31T00:46:02.274Z,7.57
2017-12-31T00:48:30.591Z,7.13
2017-12-31T00:50:58.186Z,7.10
2017-12-31T00:53:25.758Z,8.43
2017-12-31T00:55:53.372Z,7.63
2017-12-31T00:58:20.945Z,8.40
2017-12-31T01:00:49.280Z,7.50
2017-12-31T01:03:16.850Z,8.20
2017-12-31T01:05:44.441Z,6.70
2017-12-31T01:08:12.014Z,7.23
2017-12-31T01:10:39.686Z,6.80
2017-12-31T01:13:07.302Z,7.80
2017-12-31T01:15:34.873Z,7.27
2017-12-31T01:18:03.994Z,7.67
2017-12-31T01:20:31.633Z,8.03
2017-12-31T01:22:59.179Z,6.57
2017-12-31T01:25:29.022Z,6.20
2017-12-31T01:27:56.669Z,6.33
2017-12-31T01:30:24.247Z,6.27
2017-12-31T01:32:51.826Z,6.67
2017-12-31T01:35:19.407Z,7.73
2017-12-31T01:37:46.986Z,8.33
2017-12-31T01:40:15.315Z,6.13
2017-12-31T01:42:42.880Z,6.37
2017-12-31T01:45:10.461Z,6.70
2017-12-31T01:47:38.080Z,7.43
2017-12-31T01:50:05.682Z,6.83
2017-12-31T01:52:33.254Z,6.07
2017-12-31T01:55:01.605Z,6.40
2017-12-31T01:57:29.192Z,5.63
2017-12-31T01:59:57.673Z,5.80
2017-12-31T02:02:25.252Z,5.80
2017-12-31T02:04:52.841Z,7.40
2017-12-31T02:07:20.398Z,6.83
2017-12-31T02:09:48.026Z,6.70
2017-12-31T02:12:16.337Z,6.40
2017-12-31T02:14:43.928Z,6.40
2017-12-31T02:17:11.552Z,7.67
2017-12-31T02:19:39.145Z,6.67
2017-12-31T02:22:06.712Z,7.10
2017-12-31T02:24:35.063Z,6.50
2017-12-31T02:27:02.636Z,6.97
2017-12-31T02:29:30.223Z,7.40
2017-12-31T02:31:57.804Z,7.70
2017-12-31T02:34:25.406Z,6.10
2017-12-31T02:36:52.973Z,6.93
2017-12-31T02:39:20.529Z,7.30
2017-12-31T02:41:48.130Z,6.83
2017-12-31T02:44:15.698Z,8.73
2017-12-31T02:46:43.274Z,7.00
2017-12-31T02:49:11.616Z,7.10
2017-12-31T02:51:39.200Z,7.80
2017-12-31T02:54:06.779Z,7.10
2017-12-31T02:56:35.121Z,7.80
2017-12-31T02:59:02.683Z,6.70
2017-12-31T03:01:31.015Z,6.50
2017-12-31T03:03:58.580Z,6.90
2017-12-31T03:06:26.187Z,6.20
2017-12-31T03:08:53.864Z,7.10
2017-12-31T03:11:21.430Z,5.93
2017-12-31T03:13:49.822Z,7.47
2017-12-31T03:16:18.195Z,7.33
2017-12-31T03:18:46.558Z,5.80
2017-12-31T03:21:14.135Z,6.60
2017-12-31T03:23:41.771Z,6.53
2017-12-31T03:26:09.299Z,6.07
2017-12-31T03:28:36.887Z,6.40
2017-12-31T03:31:04.516Z,5.67
2017-12-31T03:33:32.102Z,6.07
2017-12-31T03:35:59.665Z,6.03
2017-12-31T03:38:27.252Z,5.80
2017-12-31T03:40:55.013Z,7.17
2017-12-31T03:43:22.656Z,5.90
2017-12-31T03:45:50.996Z,6.10
2017-12-31T03:48:18.572Z,5.10
2017-12-31T03:50:46.132Z,5.00
2017-12-31T03:53:13.692Z,4.33
2017-12-31T03:55:41.260Z,5.50
2017-12-31T03:58:09.220Z,5.20
2017-12-31T04:00:36.793Z,5.37
2017-12-31T04:03:04.353Z,4.23
2017-12-31T04:05:32.172Z,5.60
2017-12-31T04:08:01.157Z,4.43
2017-12-31T04:10:28.734Z,3.80
2017-12-31T04:12:57.063Z,3.90
2017-12-31T04:15:24.651Z,4.30
2017-12-31T04:17:52.225Z,3.50
2017-12-31T04:20:20.592Z,3.73
2017-12-31T04:22:48.448Z,3.10
2017-12-31T04:25:16.025Z,2.47
2017-12-31T04:27:43.837Z,2.27
2017-12-31T04:30:11.437Z,1.73
2017-12-31T04:32:38.993Z,2.33
2017-12-31T04:35:06.569Z,1.60
2017-12-31T04:37:34.124Z,1.47
2017-12-31T04:40:01.706Z,1.43
2017-12-31T04:42:29.253Z,1.30
2017-12-31T04:44:56.844Z,1.30
2017-12-31T04:47:24.412Z,1.23
2017-12-31T04:49:52.004Z,1.30
2017-12-31T04:52:19.658Z,1.27
2017-12-31T04:54:47.248Z,1.30
2017-12-31T04:57:14.800Z,1.10
2017-12-31T04:59:42.376Z,1.17
2017-12-31T05:02:09.929Z,1.00
2017-12-31T05:04:37.508Z,1.07
2017-12-31T05:07:05.105Z,1.20
2017-12-31T05:09:32.665Z,1.13
2017-12-31T05:12:00.222Z,1.47
2017-12-31T05:14:27.789Z,1.70
2017-12-31T05:16:55.376Z,1.70
2017-12-31T05:19:22.952Z,1.97
2017-12-31T05:21:50.532Z,1.70
2017-12-31T05:24:18.091Z,2.13
2017-12-31T05:26:45.677Z,2.53
2017-12-31T05:29:14.123Z,2.70
2017-12-31T05:31:42.485Z,2.70
2017-12-31T05:34:10.060Z,1.90
2017-12-31T05:36:37.616Z,2.73
2017-12-31T05:39:05.166Z,2.67
2017-12-31T05:41:32.749Z,3.63
2017-12-31T05:44:00.337Z,3.33
2017-12-31T05:46:29.430Z,2.70
2017-12-31T05:48:57.745Z,3.07
2017-12-31T05:51:25.310Z,3.60
2017-12-31T05:53:52.873Z,3.63
2017-12-31T05:56:20.521Z,3.70
2017-12-31T05:58:48.862Z,3.47
2017-12-31T06:01:17.180Z,3.43
2017-12-31T06:03:45.530Z,3.50
2017-12-31T06:06:13.891Z,3.47
2017-12-31T06:08:41.547Z,3.47
2017-12-31T06:11:09.107Z,2.97
2017-12-31T06:13:37.488Z,2.83
2017-12-31T06:16:05.038Z,4.10
2017-12-31T06:18:32.605Z,3.97
2017-12-31T06:21:00.174Z,4.37
2017-12-31T06:23:27.750Z,5.13
2017-12-31T06:25:56.076Z,5.00
2017-12-31T06:28:23.685Z,5.03
2017-12-31T06:30:52.034Z,4.97
2017-12-31T06:33:19.611Z,4.50
2017-12-31T06:35:47.184Z,6.37
2017-12-31T06:38:15.668Z,5.60
2017-12-31T06:40:44.005Z,4.03
2017-12-31T06:43:11.566Z,4.00
2017-12-31T06:45:39.162Z,3.87
2017-12-31T06:48:07.497Z,4.70
2017-12-31T06:50:35.068Z,4.00
2017-12-31T06:53:02.649Z,3.33
2017-12-31T06:55:30.236Z,4.70
2017-12-31T06:57:58.574Z,4.10
2017-12-31T07:00:26.133Z,4.73
2017-12-31T07:02:53.733Z,3.87
2017-12-31T07:05:22.061Z,4.63
2017-12-31T07:07:49.760Z,4.47
2017-12-31T07:10:17.324Z,4.10
2017-12-31T07:12:44.921Z,3.50
2017-12-31T07:15:12.484Z,4.60
2017-12-31T07:17:40.033Z,4.50
2017-12-31T07:20:07.646Z,4.00
2017-12-31T07:22:35.204Z,4.07
2017-12-31T07:25:02.845Z,4.07
2017-12-31T07:27:30.399Z,4.57
2017-12-31T07:29:58.077Z,4.80
2017-12-31T07:32:25.657Z,4.27
2017-12-31T07:34:54.861Z,4.40
2017-12-31T07:37:22.544Z,3.40
2017-12-31T07:39:50.876Z,4.00
2017-12-31T07:42:19.218Z,4.17
2017-12-31T07:44:46.779Z,4.40
2017-12-31T07:47:14.360Z,3.63
2017-12-31T07:49:42.130Z,3.97
2017-12-31T07:52:09.704Z,3.43
2017-12-31T07:54:37.273Z,3.10
2017-12-31T07:57:04.859Z,3.87
2017-12-31T07:59:32.442Z,3.87
2017-12-31T08:02:00.768Z,3.47
2017-12-31T08:04:28.362Z,2.97
2017-12-31T08:06:55.930Z,2.90
2017-12-31T08:09:23.496Z,2.60
2017-12-31T08:11:51.830Z,2.90
2017-12-31T08:14:19.385Z,3.33
2017-12-31T08:16:46.957Z,3.13
2017-12-31T08:19:14.697Z,2.50
2017-12-31T08:21:42.293Z,3.00
2017-12-31T08:24:09.864Z,2.90
2017-12-31T08:26:37.489Z,2.60
2017-12-31T08:29:05.153Z,3.10
2017-12-31T08:31:32.735Z,2.90
2017-12-31T08:34:00.321Z,3.03
2017-12-31T08:36:27.955Z,3.10
2017-12-31T08:38:55.567Z,2.07
2017-12-31T08:41:23.118Z,3.33
2017-12-31T08:43:51.482Z,2.70
2017-12-31T08:46:19.035Z,3.10
2017-12-31T08:48:46.596Z,2.30
2017-12-31T08:51:14.189Z,3.20
2017-12-31T08:53:41.825Z,2.30
2017-12-31T08:56:09.405Z,2.53
2017-12-31T08:58:37.756Z,2.60
2017-12-31T09:01:05.332Z,2.60
2017-12-31T09:03:33.811Z,2.73
2017-12-31T09:06:01.447Z,2.90
2017-12-31T09:08:28.970Z,2.80
2017-12-31T09:10:56.549Z,3.03
2017-12-31T09:13:24.131Z,2.70
2017-12-31T09:15:51.693Z,2.83
2017-12-31T09:18:19.288Z,2.73
2017-12-31T09:20:47.622Z,2.10
2017-12-31T09:23:15.174Z,2.40
2017-12-31T09:25:42.785Z,3.20
2017-12-31T09:28:12.837Z,3.20
2017-12-31T09:30:45.273Z,2.93
2017-12-31T09:33:12.878Z,2.43
2017-12-31T09:35:40.479Z,2.67
2017-12-31T09:38:08.058Z,1.93
2017-12-31T09:40:35.614Z,3.40
2017-12-31T09:43:03.225Z,2.67
2017-12-31T09:45:30.799Z,3.20
2017-12-31T09:48:02.447Z,3.13
2017-12-31T09:50:30.004Z,2.50
2017-12-31T09:52:58.339Z,2.43
2017-12-31T09:55:25.966Z,2.60
2017-12-31T09:57:53.560Z,2.40
2017-12-31T10:00:21.154Z,2.27
2017-12-31T10:02:48.731Z,2.27
2017-12-31T10:05:16.621Z,2.40
2017-12-31T10:07:44.297Z,3.03
2017-12-31T10:10:11.881Z,3.10
2017-12-31T10:12:40.233Z,3.00
2017-12-31T10:15:07.824Z,2.50
2017-12-31T10:17:36.226Z,3.23
2017-12-31T10:20:03.796Z,2.67
2017-12-31T10:22:31.390Z,2.60
2017-12-31T10:24:58.978Z,2.33
2017-12-31T10:27:27.344Z,2.83
2017-12-31T10:29:54.957Z,2.47
2017-12-31T10:32:22.524Z,2.30
2017-12-31T10:34:50.121Z,1.97
2017-12-31T10:37:18.572Z,2.40
2017-12-31T10:39:46.151Z,3.03
2017-12-31T10:42:13.888Z,3.10
2017-12-31T10:44:41.529Z,3.33
2017-12-31T10:47:09.125Z,2.30
2017-12-31T10:49:36.709Z,2.50
2017-12-31T10:52:04.271Z,2.50
2017-12-31T10:54:31.844Z,2.23
2017-12-31T10:56:59.427Z,2.67
2017-12-31T10:59:27.760Z,2.50
2017-12-31T11:01:56.125Z,3.03
2017-12-31T11:04:23.721Z,3.10
2017-12-31T11:06:51.289Z,2.20
2017-12-31T11:09:18.917Z,2.80
2017-12-31T11:11:46.515Z,2.43
2017-12-31T11:14:14.114Z,2.53
2017-12-31T11:16:41.683Z,2.10
2017-12-31T11:19:09.273Z,2.67
2017-12-31T11:21:36.909Z,2.70
2017-12-31T11:24:04.464Z,2.43
2017-12-31T11:26:32.035Z,2.03
2017-12-31T11:28:59.834Z,2.50
2017-12-31T11:31:28.996Z,2.27
2017-12-31T11:33:56.589Z,2.30
2017-12-31T11:36:24.161Z,2.20
2017-12-31T11:38:51.713Z,2.50
2017-12-31T11:41:19.293Z,2.57
2017-12-31T11:43:47.619Z,2.37
2017-12-31T11:46:15.248Z,2.00
2017-12-31T11:48:43.609Z,1.67
2017-12-31T11:51:11.178Z,2.73
2017-12-31T11:53:39.509Z,1.80
2017-12-31T11:56:07.095Z,2.20
2017-12-31T11:58:45.904Z,2.10
2017-12-31T12:01:14.616Z,4.13
2017-12-31T12:03:42.201Z,2.87
2017-12-31T12:06:10.558Z,2.70
2017-12-31T12:08:38.136Z,1.93
2017-12-31T12:11:06.505Z,2.80
2017-12-31T12:13:38.022Z,3.53
2017-12-31T12:16:05.610Z,1.83
2017-12-31T12:18:33.181Z,2.23
2017-12-31T12:21:01.574Z,2.20
2017-12-31T12:23:29.914Z,2.47
2017-12-31T12:25:57.489Z,2.37
2017-12-31T12:28:32.889Z,3.93
2017-12-31T12:31:00.620Z,2.47
2017-12-31T12:33:28.989Z,3.73
2017-12-31T12:35:57.310Z,2.57
2017-12-31T12:38:24.911Z,2.73
2017-12-31T12:40:52.490Z,2.10
2017-12-31T12:43:32.746Z,2.00
2017-12-31T12:46:00.601Z,1.97
2017-12-31T12:48:28.218Z,2.53
2017-12-31T12:50:55.802Z,2.20
2017-12-31T12:53:23.894Z,2.23
2017-12-31T12:55:51.453Z,2.60
2017-12-31T12:58:20.545Z,2.00
2017-12-31T13:00:48.170Z,2.03
2017-12-31T13:03:15.733Z,1.90
2017-12-31T13:05:43.348Z,2.90
2017-12-31T13:08:10.902Z,2.20
2017-12-31T13:10:38.477Z,2.00
2017-12-31T13:13:06.075Z,2.30
2017-12-31T13:15:34.377Z,1.97
2017-12-31T13:18:01.952Z,1.80
2017-12-31T13:20:29.512Z,1.80
2017-12-31T13:22:57.101Z,2.27
2017-12-31T13:25:25.452Z,2.27
2017-12-31T13:27:53.053Z,2.20
2017-12-31T13:30:21.370Z,2.00
2017-12-31T13:32:48.966Z,2.43
2017-12-31T13:35:16.545Z,2.60
2017-12-31T13:37:44.889Z,2.53
2017-12-31T13:40:12.471Z,3.50
2017-12-31T13:42:40.052Z,2.70
2017-12-31T13:45:08.415Z,2.37
2017-12-31T13:47:36.036Z,2.30
2017-12-31T13:50:03.630Z,2.50
2017-12-31T13:52:31.274Z,2.60
2017-12-31T13:54:58.910Z,2.53
2017-12-31T13:57:26.771Z,2.77
2017-12-31T13:59:55.184Z,4.20
2017-12-31T14:02:22.757Z,3.37
2017-12-31T14:04:50.342Z,4.10
2017-12-31T14:07:17.909Z,4.83
2017-12-31T14:09:46.270Z,3.40
2017-12-31T14:12:13.860Z,3.90
2017-12-31T14:14:41.404Z,3.00
2017-12-31T14:17:09.789Z,3.00
2017-12-31T14:19:39.065Z,2.47
2017-12-31T14:22:06.666Z,2.90
2017-12-31T14:24:34.269Z,3.53
2017-12-31T14:27:02.684Z,3.20
2017-12-31T14:29:30.258Z,3.10
2017-12-31T14:31:57.855Z,2.97
2017-12-31T14:34:25.397Z,2.77
2017-12-31T14:36:52.986Z,2.67
2017-12-31T14:39:20.569Z,2.50
2017-12-31T14:41:48.127Z,2.33
2017-12-31T14:44:15.705Z,3.07
2017-12-31T14:46:44.185Z,2.50
2017-12-31T14:49:11.764Z,2.33
2017-12-31T14:51:40.816Z,2.40
2017-12-31T14:54:08.689Z,3.50
2017-12-31T14:56:36.272Z,2.33
2017-12-31T14:59:03.824Z,2.47
2017-12-31T15:01:31.511Z,2.60
2017-12-31T15:03:59.889Z,2.47
2017-12-31T15:06:28.807Z,3.40
2017-12-31T15:08:56.433Z,2.60
2017-12-31T15:11:24.031Z,2.60
2017-12-31T15:13:51.628Z,2.37
2017-12-31T15:16:19.189Z,2.60
2017-12-31T15:18:46.807Z,2.43
2017-12-31T15:21:14.399Z,2.37
2017-12-31T15:23:41.991Z,3.53
2017-12-31T15:26:09.554Z,3.03
2017-12-31T15:28:37.109Z,3.30
2017-12-31T15:31:05.451Z,2.50
2017-12-31T15:33:33.042Z,2.80
2017-12-31T15:36:01.408Z,2.30
2017-12-31T15:38:29.004Z,2.47
2017-12-31T15:40:56.601Z,2.23
2017-12-31T15:43:24.184Z,2.77
2017-12-31T15:45:51.789Z,2.77
2017-12-31T15:48:20.153Z,2.20
2017-12-31T15:50:47.721Z,2.57
2017-12-31T15:53:15.295Z,2.97
2017-12-31T15:55:44.533Z,3.43
2017-12-31T15:58:12.102Z,2.03
2017-12-31T16:00:40.043Z,3.30
2017-12-31T16:03:08.435Z,8.85
2017-12-31T16:05:36.005Z,3.10
2017-12-31T16:08:07.842Z,4.53
2017-12-31T16:10:35.491Z,5.50
2017-12-31T16:13:04.031Z,3.70
2017-12-31T16:15:31.637Z,3.93
2017-12-31T16:17:59.189Z,4.60
2017-12-31T16:20:27.577Z,4.00
2017-12-31T16:22:55.924Z,3.80
2017-12-31T16:25:23.559Z,5.43
2017-12-31T16:27:51.279Z,5.50
2017-12-31T16:30:18.868Z,4.53
2017-12-31T16:32:47.217Z,4.90
2017-12-31T16:35:15.546Z,3.80
2017-12-31T16:37:43.178Z,4.13
2017-12-31T16:40:10.729Z,3.40
2017-12-31T16:42:38.319Z,3.30
2017-12-31T16:45:05.917Z,3.30
2017-12-31T16:47:33.504Z,3.90
2017-12-31T16:50:01.801Z,3.50
2017-12-31T16:52:29.364Z,3.60
2017-12-31T16:54:57.163Z,5.83
2017-12-31T16:57:25.545Z,4.13
2017-12-31T16:59:53.137Z,5.23
2017-12-31T17:02:20.721Z,4.80
2017-12-31T17:04:49.099Z,3.60
2017-12-31T17:07:17.454Z,4.73
2017-12-31T17:09:45.050Z,3.33
2017-12-31T17:12:12.634Z,3.17
2017-12-31T17:14:40.253Z,3.70
2017-12-31T17:17:08.605Z,4.40
2017-12-31T17:19:36.191Z,4.10
2017-12-31T17:22:04.558Z,4.70
2017-12-31T17:24:32.156Z,3.97
2017-12-31T17:26:59.721Z,4.20
2017-12-31T17:29:27.325Z,4.33
2017-12-31T17:31:54.918Z,3.40
2017-12-31T17:34:23.265Z,5.40
2017-12-31T17:36:50.852Z,3.67
2017-12-31T17:39:19.191Z,3.63
2017-12-31T17:41:46.804Z,3.30
2017-12-31T17:44:15.149Z,3.30
2017-12-31T17:46:42.717Z,3.80
2017-12-31T17:49:10.276Z,4.90
2017-12-31T17:51:37.879Z,3.43
2017-12-31T17:54:05.437Z,3.97
2017-12-31T17:56:33.068Z,3.70
2017-12-31T17:59:00.617Z,4.00
2017-12-31T18:01:28.198Z,3.70
2017-12-31T18:03:56.565Z,3.80
2017-12-31T18:06:24.123Z,3.40
2017-12-31T18:08:51.681Z,3.57
2017-12-31T18:11:19.289Z,4.10
2017-12-31T18:13:46.876Z,3.33
2017-12-31T18:16:14.451Z,2.80
2017-12-31T18:18:42.049Z,3.47
2017-12-31T18:21:10.391Z,3.47
2017-12-31T18:23:38.796Z,3.23
2017-12-31T18:26:07.167Z,3.30
2017-12-31T18:28:34.724Z,3.70
2017-12-31T18:31:02.335Z,3.53
2017-12-31T18:33:30.642Z,31.33
2017-12-31T18:35:58.227Z,5.50
2017-12-31T18:38:25.893Z,5.30
2017-12-31T18:40:53.459Z,4.40
2017-12-31T18:43:21.098Z,3.50
2017-12-31T18:45:48.778Z,3.37
2017-12-31T18:48:16.361Z,4.00
2017-12-31T18:50:44.705Z,3.93
2017-12-31T18:53:12.261Z,3.93
2017-12-31T18:55:39.843Z,4.80
2017-12-31T18:58:07.427Z,3.57
2017-12-31T19:00:35.760Z,4.30
2017-12-31T19:03:03.337Z,3.93
2017-12-31T19:05:30.920Z,4.40
2017-12-31T19:08:00.406Z,3.60
2017-12-31T19:10:28.033Z,5.85
2017-12-31T19:12:55.690Z,5.57
2017-12-31T19:15:23.266Z,5.63
2017-12-31T19:17:50.863Z,5.87
2017-12-31T19:20:18.431Z,5.23
2017-12-31T19:22:46.797Z,4.67
2017-12-31T19:25:14.362Z,4.20
2017-12-31T19:27:42.702Z,4.10
2017-12-31T19:30:12.398Z,4.07
2017-12-31T19:32:39.961Z,4.23
2017-12-31T19:35:07.548Z,5.40
2017-12-31T19:37:35.144Z,4.33
2017-12-31T19:40:03.496Z,4.13
2017-12-31T19:42:31.072Z,5.87
2017-12-31T19:44:58.663Z,4.10
2017-12-31T19:47:26.232Z,4.33
2017-12-31T19:49:55.313Z,4.83
2017-12-31T19:52:22.901Z,4.20
2017-12-31T19:54:50.484Z,4.40
2017-12-31T19:57:18.058Z,4.00
2017-12-31T19:59:45.659Z,3.90
2017-12-31T20:02:13.268Z,4.37
2017-12-31T20:04:41.622Z,4.57
2017-12-31T20:07:09.183Z,5.23
2017-12-31T20:09:36.813Z,4.40
2017-12-31T20:12:05.172Z,4.60
2017-12-31T20:14:32.756Z,4.50
2017-12-31T20:17:01.171Z,3.70
2017-12-31T20:19:28.729Z,3.90
2017-12-31T20:21:56.336Z,3.20
2017-12-31T20:24:23.930Z,3.00
2017-12-31T20:26:51.508Z,3.40
2017-12-31T20:29:19.102Z,2.40
2017-12-31T20:31:47.673Z,2.20
2017-12-31T20:34:15.246Z,9.13
2017-12-31T20:36:42.888Z,2.10
2017-12-31T20:39:10.601Z,2.17
2017-12-31T20:41:38.928Z,2.67
2017-12-31T20:44:06.508Z,2.67
2017-12-31T20:46:35.046Z,3.50
2017-12-31T20:49:03.798Z,2.73
2017-12-31T20:51:31.957Z,1.20
2017-12-31T20:53:59.540Z,2.37
2017-12-31T20:56:27.164Z,2.00
2017-12-31T20:58:54.746Z,1.57
2017-12-31T21:01:22.445Z,1.60
2017-12-31T21:03:50.781Z,1.50
2017-12-31T21:06:19.182Z,2.20
2017-12-31T21:08:46.739Z,1.00
2017-12-31T21:11:14.326Z,1.50
2017-12-31T21:13:42.707Z,11.90
2017-12-31T21:16:11.079Z,3.43
2017-12-31T21:18:38.625Z,1.60
2017-12-31T21:21:06.220Z,1.50
2017-12-31T21:23:33.793Z,1.50
2017-12-31T21:26:01.355Z,1.27
2017-12-31T21:28:28.944Z,2.00
2017-12-31T21:30:56.526Z,2.10
2017-12-31T21:33:24.208Z,2.33
2017-12-31T21:35:52.574Z,1.50
2017-12-31T21:38:20.157Z,1.90
2017-12-31T21:40:48.490Z,1.37
2017-12-31T21:43:16.067Z,2.03
2017-12-31T21:45:43.639Z,3.33
2017-12-31T21:48:11.239Z,1.50
2017-12-31T21:50:38.800Z,5.40
2017-12-31T21:53:07.147Z,1.90
2017-12-31T21:55:35.514Z,1.40
2017-12-31T21:58:03.128Z,3.10
2017-12-31T22:00:30.727Z,2.43
2017-12-31T22:02:58.305Z,1.90
2017-12-31T22:05:26.654Z,4.30
2017-12-31T22:07:54.207Z,2.80
2017-12-31T22:10:21.770Z,2.30
2017-12-31T22:12:49.357Z,3.00
2017-12-31T22:15:16.904Z,2.30
2017-12-31T22:17:44.496Z,3.47
2017-12-31T22:20:13.004Z,3.10
2017-12-31T22:22:40.580Z,2.70
2017-12-31T22:25:08.137Z,2.57
2017-12-31T22:27:35.701Z,3.27
2017-12-31T22:30:03.252Z,2.30
2017-12-31T22:32:30.838Z,2.30
2017-12-31T22:34:58.404Z,2.23
2017-12-31T22:37:25.957Z,3.13
2017-12-31T22:39:53.548Z,2.60
2017-12-31T22:42:21.921Z,4.40
2017-12-31T22:44:49.548Z,2.70
2017-12-31T22:47:17.113Z,2.73
2017-12-31T22:49:46.761Z,3.57
2017-12-31T22:52:14.340Z,2.63
2017-12-31T22:54:42.738Z,3.07
2017-12-31T22:57:10.340Z,3.30
2017-12-31T22:59:37.955Z,3.10
2017-12-31T23:02:06.287Z,4.20
2017-12-31T23:04:33.880Z,101.73
2017-12-31T23:07:02.245Z,115.03
2017-12-31T23:09:29.799Z,50.70
2017-12-31T23:11:57.388Z,55.23
2017-12-31T23:14:24.976Z,83.12
2017-12-31T23:16:52.538Z,28.70
2017-12-31T23:19:20.116Z,56.77
2017-12-31T23:21:47.731Z,69.93
2017-12-31T23:24:15.282Z,31.37
2017-12-31T23:26:43.656Z,74.60
2017-12-31T23:29:11.976Z,28.23
2017-12-31T23:31:39.605Z,51.80
2017-12-31T23:36:42.204Z,24.90
2017-12-31T23:39:10.529Z,35.57
2017-12-31T23:41:38.141Z,26.10
2017-12-31T23:44:06.505Z,25.33
2017-12-31T23:46:34.958Z,21.90
2017-12-31T23:49:02.556Z,30.17
2017-12-31T23:51:30.153Z,30.17
2017-12-31T23:53:57.870Z,27.73
2017-12-31T23:56:25.453Z,25.37
2017-12-31T23:58:53.842Z,29.67
